Time,TemperatureF,DewpointF,PressureIn,WindDirection,WindDirectionDegrees,WindSpeedMPH,WindSpeedGustMPH,Humidity,HourlyPrecipIn,Conditions,Clouds,dailyrainin,SoftwareType,DateUTC
2013-04-11 05:28:00,66.7,47.0,29.85,NNW,338,2.6,7.2,49,0.00,,,0.00,WUHU216TE923,2013-04-11 09:28:00,
2013-04-11 05:33:00,66.7,47.0,29.85,NNW,338,2.6,7.2,49,0.00,,,0.00,WUHU216TE923,2013-04-11 09:33:00,
2013-04-11 05:38:00,66.2,46.5,29.85,South,180,2.3,5.0,49,0.00,,,0.00,WUHU216TE923,2013-04-11 09:38:00,
2013-04-11 05:43:00,66.2,46.5,29.85,South,180,2.3,5.0,49,0.00,,,0.00,WUHU216TE923,2013-04-11 09:43:00,
2013-04-11 05:48:00,66.2,46.5,29.86,West,270,2.2,4.5,49,0.00,,,0.00,WUHU216TE923,2013-04-11 09:48:00,
2013-04-11 05:53:00,66.2,46.5,29.86,West,270,2.2,4.5,49,0.00,,,0.00,WUHU216TE923,2013-04-11 09:53:00,
2013-04-11 05:58:00,65.8,46.7,29.86,NW,315,1.2,2.6,50,0.00,,,0.00,WUHU216TE923,2013-04-11 09:58:00,
2013-04-11 06:03:00,65.8,46.7,29.86,NW,315,1.2,2.6,50,0.00,,,0.00,WUHU216TE923,2013-04-11 10:03:00,
2013-04-11 06:08:00,65.8,46.7,29.86,SW,225,1.7,3.7,50,0.00,,,0.00,WUHU216TE923,2013-04-11 10:08:00,
2013-04-11 06:13:00,65.8,46.7,29.86,SW,225,1.7,3.7,50,0.00,,,0.00,WUHU216TE923,2013-04-11 10:13:00,
2013-04-11 06:18:00,65.7,47.1,29.86,West,270,1.5,3.4,51,0.00,,,0.00,WUHU216TE923,2013-04-11 10:18:00,
2013-04-11 06:23:00,65.7,47.1,29.86,West,270,1.5,3.4,51,0.00,,,0.00,WUHU216TE923,2013-04-11 10:23:00,
2013-04-11 06:28:00,65.1,47.1,29.86,WSW,248,1.0,1.9,52,0.00,,,0.00,WUHU216TE923,2013-04-11 10:28:00,
2013-04-11 06:33:00,65.1,47.1,29.86,WSW,248,1.0,1.9,52,0.00,,,0.00,WUHU216TE923,2013-04-11 10:33:00,
2013-04-11 06:38:00,64.9,46.9,29.86,SW,225,0.3,0.8,52,0.00,,,0.00,WUHU216TE923,2013-04-11 10:38:00,
2013-04-11 06:43:00,64.9,46.9,29.86,SW,225,0.3,0.8,52,0.00,,,0.00,WUHU216TE923,2013-04-11 10:43:00,
2013-04-11 06:48:00,64.4,47.0,29.86,SW,225,0.1,0.1,53,0.00,,,0.00,WUHU216TE923,2013-04-11 10:48:00,
2013-04-11 06:53:00,64.4,47.0,29.86,SW,225,0.1,0.1,53,0.00,,,0.00,WUHU216TE923,2013-04-11 10:53:00,
2013-04-11 06:58:00,64.0,47.1,29.86,WNW,293,0.1,0.1,54,0.00,,,0.00,WUHU216TE923,2013-04-11 10:58:00,
2013-04-11 07:03:00,64.0,47.1,29.86,WNW,293,0.1,0.1,54,0.00,,,0.00,WUHU216TE923,2013-04-11 11:03:00,
2013-04-11 07:08:00,63.7,47.3,29.86,WNW,293,0.0,0.0,55,0.00,,,0.00,WUHU216TE923,2013-04-11 11:08:00,
2013-04-11 07:13:00,63.7,47.3,29.86,WNW,293,0.0,0.0,55,0.00,,,0.00,WUHU216TE923,2013-04-11 11:13:00,
2013-04-11 07:18:00,63.5,47.6,29.86,SE,135,0.0,0.0,56,0.00,,,0.00,WUHU216TE923,2013-04-11 11:18:00,
2013-04-11 07:23:00,63.5,47.6,29.86,SE,135,0.0,0.0,56,0.00,,,0.00,WUHU216TE923,2013-04-11 11:23:00,
2013-04-11 07:28:00,63.0,47.2,29.87,SE,135,0.0,0.0,56,0.00,,,0.00,WUHU216TE923,2013-04-11 11:28:00,
2013-04-11 07:33:00,63.0,47.2,29.87,SE,135,0.0,0.0,56,0.00,,,0.00,WUHU216TE923,2013-04-11 11:33:00,
2013-04-11 07:38:00,63.0,47.6,29.87,WSW,248,0.0,0.0,57,0.00,,,0.00,WUHU216TE923,2013-04-11 11:38:00,
2013-04-11 07:43:00,63.0,47.6,29.87,WSW,248,0.0,0.0,57,0.00,,,0.00,WUHU216TE923,2013-04-11 11:43:00,
2013-04-11 07:48:00,63.3,48.4,29.86,WSW,248,0.2,2.6,58,0.00,,,0.00,WUHU216TE923,2013-04-11 11:48:00,
2013-04-11 07:53:00,63.3,48.4,29.86,WSW,248,0.2,2.6,58,0.00,,,0.00,WUHU216TE923,2013-04-11 11:53:00,
2013-04-11 07:58:00,64.2,49.2,29.86,South,180,0.2,0.3,58,0.00,,,0.00,WUHU216TE923,2013-04-11 11:58:00,
2013-04-11 08:03:00,64.2,49.2,29.86,South,180,0.2,0.3,58,0.00,,,0.00,WUHU216TE923,2013-04-11 12:03:00,
2013-04-11 08:08:00,65.1,50.1,29.87,South,180,0.7,1.8,58,0.00,,,0.00,WUHU216TE923,2013-04-11 12:08:00,
2013-04-11 08:13:00,65.1,50.1,29.87,South,180,0.7,1.8,58,0.00,,,0.00,WUHU216TE923,2013-04-11 12:13:00,
2013-04-11 08:18:00,64.9,48.9,29.87,South,180,0.1,0.6,56,0.00,,,0.00,WUHU216TE923,2013-04-11 12:18:00,
2013-04-11 08:23:00,64.9,48.9,29.87,South,180,0.1,0.6,56,0.00,,,0.00,WUHU216TE923,2013-04-11 12:23:00,
2013-04-11 08:28:00,65.1,48.6,29.87,ESE,113,0.3,2.3,55,0.00,,,0.00,WUHU216TE923,2013-04-11 12:28:00,
2013-04-11 08:33:00,65.1,48.6,29.87,ESE,113,0.3,2.3,55,0.00,,,0.00,WUHU216TE923,2013-04-11 12:33:00,
2013-04-11 08:38:00,65.5,49.0,29.87,SE,135,0.1,0.3,55,0.00,,,0.00,WUHU216TE923,2013-04-11 12:38:00,
2013-04-11 08:43:00,65.5,49.0,29.87,SE,135,0.1,0.3,55,0.00,,,0.00,WUHU216TE923,2013-04-11 12:43:00,
2013-04-11 08:48:00,66.4,49.3,29.87,SSE,158,0.4,1.1,54,0.00,,,0.00,WUHU216TE923,2013-04-11 12:48:00,
2013-04-11 08:53:00,66.4,49.3,29.87,SSE,158,0.4,1.1,54,0.00,,,0.00,WUHU216TE923,2013-04-11 12:53:00,
2013-04-11 08:58:00,66.6,48.5,29.87,SW,225,0.9,1.1,52,0.00,,,0.00,WUHU216TE923,2013-04-11 12:58:00,
2013-04-11 09:03:00,66.6,48.5,29.87,SW,225,0.9,1.1,52,0.00,,,0.00,WUHU216TE923,2013-04-11 13:03:00,
2013-04-11 09:08:00,67.3,47.5,29.87,South,180,1.7,3.3,49,0.00,,,0.00,WUHU216TE923,2013-04-11 13:08:00,
2013-04-11 09:13:00,67.3,47.5,29.87,South,180,1.7,3.3,49,0.00,,,0.00,WUHU216TE923,2013-04-11 13:13:00,
2013-04-11 09:18:00,68.2,47.8,29.87,South,180,2.3,3.8,48,0.00,,,0.00,WUHU216TE923,2013-04-11 13:18:00,
2013-04-11 09:23:00,68.2,47.8,29.87,South,180,2.3,3.8,48,0.00,,,0.00,WUHU216TE923,2013-04-11 13:23:00,
2013-04-11 09:28:00,68.7,48.2,29.88,WSW,248,1.9,2.1,48,0.00,,,0.00,WUHU216TE923,2013-04-11 13:28:00,
2013-04-11 09:33:00,68.7,48.2,29.88,WSW,248,1.9,2.1,48,0.00,,,0.00,WUHU216TE923,2013-04-11 13:33:00,
2013-04-11 09:38:00,68.0,47.6,29.88,SE,135,2.4,3.3,48,0.00,,,0.00,WUHU216TE923,2013-04-11 13:38:00,
2013-04-11 09:43:00,68.0,47.6,29.88,SE,135,2.4,3.3,48,0.00,,,0.00,WUHU216TE923,2013-04-11 13:43:00,
2013-04-11 09:48:00,67.8,47.4,29.89,SW,225,3.0,4.6,48,0.00,,,0.00,WUHU216TE923,2013-04-11 13:48:00,
2013-04-11 09:54:00,67.8,47.4,29.89,SW,225,3.0,4.6,48,0.00,,,0.00,WUHU216TE923,2013-04-11 13:54:00,
2013-04-11 09:59:00,68.7,47.7,29.89,South,180,2.6,5.0,47,0.00,,,0.00,WUHU216TE923,2013-04-11 13:59:00,
2013-04-11 10:04:00,68.7,47.7,29.89,South,180,2.6,5.0,47,0.00,,,0.00,WUHU216TE923,2013-04-11 14:04:00,
2013-04-11 10:08:00,68.5,47.5,29.89,SW,225,3.0,3.5,47,0.00,,,0.00,WUHU216TE923,2013-04-11 14:08:00,
2013-04-11 10:14:00,68.5,47.5,29.89,SW,225,3.0,3.5,47,0.00,,,0.00,WUHU216TE923,2013-04-11 14:14:00,
2013-04-11 10:18:00,69.1,48.0,29.89,South,180,2.6,9.2,47,0.00,,,0.00,WUHU216TE923,2013-04-11 14:18:00,
2013-04-11 10:24:00,69.1,48.0,29.89,South,180,2.6,9.2,47,0.00,,,0.00,WUHU216TE923,2013-04-11 14:24:00,
2013-04-11 10:29:00,68.7,47.7,29.89,NNW,338,2.6,3.4,47,0.00,,,0.00,WUHU216TE923,2013-04-11 14:29:00,
2013-04-11 10:34:00,68.7,47.7,29.89,NNW,338,2.6,3.4,47,0.00,,,0.00,WUHU216TE923,2013-04-11 14:34:00,
2013-04-11 10:39:00,70.7,48.3,29.89,SSW,203,2.6,5.7,45,0.00,,,0.00,WUHU216TE923,2013-04-11 14:39:00,
2013-04-11 10:44:00,70.7,48.3,29.89,SSW,203,2.6,5.7,45,0.00,,,0.00,WUHU216TE923,2013-04-11 14:44:00,
2013-04-11 10:49:00,70.9,47.8,29.88,South,180,3.1,5.4,44,0.00,,,0.00,WUHU216TE923,2013-04-11 14:49:00,
2013-04-11 10:54:00,70.9,47.8,29.88,South,180,3.1,5.4,44,0.00,,,0.00,WUHU216TE923,2013-04-11 14:54:00,
2013-04-11 10:59:00,73.6,46.3,29.88,West,270,2.8,4.7,38,0.00,,,0.00,WUHU216TE923,2013-04-11 14:59:00,
2013-04-11 11:04:00,73.6,46.3,29.88,West,270,2.8,4.7,38,0.00,,,0.00,WUHU216TE923,2013-04-11 15:04:00,
2013-04-11 11:09:00,74.7,45.1,29.88,West,270,2.9,3.3,35,0.00,,,0.00,WUHU216TE923,2013-04-11 15:09:00,
2013-04-11 11:14:00,74.7,45.1,29.88,West,270,2.9,3.3,35,0.00,,,0.00,WUHU216TE923,2013-04-11 15:14:00,
2013-04-11 11:19:00,74.7,45.1,29.88,West,270,2.9,5.1,35,0.00,,,0.00,WUHU216TE923,2013-04-11 15:19:00,
2013-04-11 11:24:00,74.7,45.1,29.88,West,270,2.9,5.1,35,0.00,,,0.00,WUHU216TE923,2013-04-11 15:24:00,
2013-04-11 11:29:00,74.8,45.2,29.86,SSW,203,2.7,3.4,35,0.00,,,0.00,WUHU216TE923,2013-04-11 15:29:00,
2013-04-11 11:34:00,74.8,45.2,29.86,SSW,203,2.7,3.4,35,0.00,,,0.00,WUHU216TE923,2013-04-11 15:34:00,
2013-04-11 11:39:00,75.7,44.4,29.86,West,270,2.0,3.1,33,0.00,,,0.00,WUHU216TE923,2013-04-11 15:39:00,
2013-04-11 11:44:00,75.7,44.4,29.86,West,270,2.0,3.1,33,0.00,,,0.00,WUHU216TE923,2013-04-11 15:44:00,
2013-04-11 11:49:00,74.3,43.2,29.86,South,180,2.8,4.1,33,0.00,,,0.00,WUHU216TE923,2013-04-11 15:49:00,
2013-04-11 11:54:00,74.3,43.2,29.86,South,180,2.8,4.1,33,0.00,,,0.00,WUHU216TE923,2013-04-11 15:54:00,
2013-04-11 11:59:00,75.7,42.7,29.86,ESE,113,3.6,6.0,31,0.00,,,0.00,WUHU216TE923,2013-04-11 15:59:00,
2013-04-11 12:04:00,75.7,42.7,29.86,ESE,113,3.6,6.0,31,0.00,,,0.00,WUHU216TE923,2013-04-11 16:04:00,
2013-04-11 12:09:00,75.7,43.6,29.84,North,0,3.3,3.9,32,0.00,,,0.00,WUHU216TE923,2013-04-11 16:09:00,
2013-04-11 12:14:00,75.7,43.6,29.84,North,0,3.3,3.9,32,0.00,,,0.00,WUHU216TE923,2013-04-11 16:14:00,
2013-04-11 12:19:00,76.3,44.1,29.84,SE,135,3.7,4.7,32,0.00,,,0.00,WUHU216TE923,2013-04-11 16:19:00,
2013-04-11 12:24:00,76.3,44.1,29.84,SE,135,3.7,4.7,32,0.00,,,0.00,WUHU216TE923,2013-04-11 16:24:00,
2013-04-11 12:29:00,75.7,42.7,29.84,ESE,113,4.4,8.1,31,0.00,,,0.00,WUHU216TE923,2013-04-11 16:29:00,
2013-04-11 12:34:00,75.7,42.7,29.84,ESE,113,4.4,8.1,31,0.00,,,0.00,WUHU216TE923,2013-04-11 16:34:00,
2013-04-11 12:39:00,76.6,44.4,29.84,SW,225,3.2,5.3,32,0.00,,,0.00,WUHU216TE923,2013-04-11 16:39:00,
2013-04-11 12:44:00,76.6,44.4,29.84,SW,225,3.2,5.3,32,0.00,,,0.00,WUHU216TE923,2013-04-11 16:44:00,
2013-04-11 12:49:00,75.7,43.6,29.83,SSW,203,3.8,4.3,32,0.00,,,0.00,WUHU216TE923,2013-04-11 16:49:00,
2013-04-11 12:54:00,75.7,43.6,29.83,SSW,203,3.8,4.3,32,0.00,,,0.00,WUHU216TE923,2013-04-11 16:54:00,
2013-04-11 12:59:00,74.3,44.7,29.83,South,180,3.8,4.8,35,0.00,,,0.00,WUHU216TE923,2013-04-11 16:59:00,
2013-04-11 13:04:00,74.3,44.7,29.83,South,180,3.8,4.8,35,0.00,,,0.00,WUHU216TE923,2013-04-11 17:04:00,
2013-04-11 13:09:00,74.1,45.3,29.81,SSE,158,2.7,4.1,36,0.00,,,0.00,WUHU216TE923,2013-04-11 17:09:00,
2013-04-11 13:14:00,74.1,45.3,29.81,SSE,158,2.7,4.1,36,0.00,,,0.00,WUHU216TE923,2013-04-11 17:14:00,
2013-04-11 13:19:00,74.5,45.6,29.81,South,180,2.5,3.5,36,0.00,,,0.00,WUHU216TE923,2013-04-11 17:19:00,
2013-04-11 13:24:00,74.5,45.6,29.81,South,180,2.5,3.5,36,0.00,,,0.00,WUHU216TE923,2013-04-11 17:24:00,
2013-04-11 13:29:00,74.5,45.6,29.80,South,180,2.4,3.8,36,0.00,,,0.00,WUHU216TE923,2013-04-11 17:29:00,
2013-04-11 13:34:00,74.5,45.6,29.80,South,180,2.4,3.8,36,0.00,,,0.00,WUHU216TE923,2013-04-11 17:34:00,
2013-04-11 13:39:00,74.3,46.9,29.80,South,180,2.6,4.3,38,0.00,,,0.00,WUHU216TE923,2013-04-11 17:39:00,
2013-04-11 13:44:00,74.3,46.9,29.80,South,180,2.6,4.3,38,0.00,,,0.00,WUHU216TE923,2013-04-11 17:44:00,
2013-04-11 13:49:00,74.3,46.9,29.79,South,180,3.0,3.6,38,0.00,,,0.00,WUHU216TE923,2013-04-11 17:49:00,
2013-04-11 13:54:00,74.3,46.9,29.79,South,180,3.0,3.6,38,0.00,,,0.00,WUHU216TE923,2013-04-11 17:54:00,
2013-04-11 13:59:00,74.5,47.1,29.79,WSW,248,3.3,3.8,38,0.00,,,0.00,WUHU216TE923,2013-04-11 17:59:00,
2013-04-11 14:04:00,74.5,47.1,29.79,WSW,248,3.3,3.8,38,0.00,,,0.00,WUHU216TE923,2013-04-11 18:04:00,
2013-04-11 14:09:00,73.4,46.8,29.79,SSW,203,4.0,7.7,39,0.00,,,0.00,WUHU216TE923,2013-04-11 18:09:00,
2013-04-11 14:14:00,73.4,46.8,29.79,SSW,203,4.0,7.7,39,0.00,,,0.00,WUHU216TE923,2013-04-11 18:14:00,
2013-04-11 14:19:00,74.1,47.4,29.79,SSW,203,3.4,4.3,39,0.00,,,0.00,WUHU216TE923,2013-04-11 18:19:00,
2013-04-11 14:24:00,74.1,47.4,29.79,SSW,203,3.4,4.3,39,0.00,,,0.00,WUHU216TE923,2013-04-11 18:24:00,
2013-04-11 14:29:00,74.7,47.3,29.77,South,180,3.2,3.5,38,0.00,,,0.00,WUHU216TE923,2013-04-11 18:29:00,
2013-04-11 14:34:00,74.7,47.3,29.77,South,180,3.2,3.5,38,0.00,,,0.00,WUHU216TE923,2013-04-11 18:34:00,
2013-04-11 14:39:00,75.9,47.6,29.77,East,90,2.6,3.3,37,0.00,,,0.00,WUHU216TE923,2013-04-11 18:39:00,
2013-04-11 14:44:00,77.2,48.8,29.76,SSE,158,2.4,8.8,37,0.00,,,0.00,WUHU216TE923,2013-04-11 18:44:00,
2013-04-11 14:49:00,76.5,47.4,29.76,South,180,2.8,8.8,36,0.00,,,0.00,WUHU216TE923,2013-04-11 18:49:00,
2013-04-11 14:54:00,77.2,48.0,29.76,SE,135,3.6,6.3,36,0.00,,,0.00,WUHU216TE923,2013-04-11 18:54:00,
2013-04-11 14:59:00,77.2,48.0,29.76,WNW,293,3.6,6.3,36,0.00,,,0.00,WUHU216TE923,2013-04-11 18:59:00,
2013-04-11 15:04:00,77.2,47.3,29.73,South,180,3.6,7.2,35,0.00,,,0.00,WUHU216TE923,2013-04-11 19:04:00,
2013-04-11 15:09:00,77.0,47.9,29.73,SW,225,3.9,7.2,36,0.00,,,0.00,WUHU216TE923,2013-04-11 19:09:00,
2013-04-11 15:14:00,77.0,47.9,29.73,SW,225,3.9,3.9,36,0.00,,,0.00,WUHU216TE923,2013-04-11 19:14:00,
2013-04-11 15:19:00,78.3,48.2,29.73,SE,135,3.6,7.4,35,0.00,,,0.00,WUHU216TE923,2013-04-11 19:19:00,
2013-04-11 15:24:00,77.5,47.5,29.71,SW,225,3.8,7.4,35,0.00,,,0.00,WUHU216TE923,2013-04-11 19:24:00,
2013-04-11 15:29:00,77.0,47.1,29.71,SW,225,5.1,8.1,35,0.00,,,0.00,WUHU216TE923,2013-04-11 19:29:00,
2013-04-11 15:34:00,76.1,47.1,29.71,SW,225,5.0,8.1,36,0.00,,,0.00,WUHU216TE923,2013-04-11 19:34:00,
2013-04-11 15:39:00,75.7,48.2,29.71,SE,135,4.5,6.6,38,0.00,,,0.00,WUHU216TE923,2013-04-11 19:39:00,
2013-04-11 15:44:00,75.7,48.2,29.71,South,180,3.9,4.6,38,0.00,,,0.00,WUHU216TE923,2013-04-11 19:44:00,
2013-04-11 15:49:00,75.7,48.2,29.71,SW,225,2.8,3.9,38,0.00,,,0.00,WUHU216TE923,2013-04-11 19:49:00,
2013-04-11 15:54:00,75.4,48.6,29.71,SE,135,2.5,3.8,39,0.00,,,0.00,WUHU216TE923,2013-04-11 19:54:00,
2013-04-11 15:59:00,74.5,48.5,29.71,SW,225,3.3,4.8,40,0.00,,,0.00,WUHU216TE923,2013-04-11 19:59:00,
2013-04-11 16:04:00,74.1,48.8,29.69,SW,225,3.8,4.8,41,0.00,,,0.00,WUHU216TE923,2013-04-11 20:04:00,
2013-04-11 16:09:00,73.8,49.2,29.69,South,180,3.4,5.4,42,0.00,,,0.00,WUHU216TE923,2013-04-11 20:09:00,
2013-04-11 16:14:00,72.5,51.1,29.69,South,180,3.7,5.4,47,0.00,,,0.00,WUHU216TE923,2013-04-11 20:14:00,
2013-04-11 16:19:00,72.3,52.1,29.69,SSE,158,3.7,4.5,49,0.00,,,0.00,WUHU216TE923,2013-04-11 20:19:00,
2013-04-11 16:24:00,72.5,52.3,29.71,South,180,3.2,5.8,49,0.00,,,0.00,WUHU216TE923,2013-04-11 20:24:00,
2013-04-11 16:29:00,73.2,52.9,29.71,SSE,158,3.1,5.8,49,0.00,,,0.00,WUHU216TE923,2013-04-11 20:29:00,
2013-04-11 16:34:00,73.2,52.9,29.71,WSW,248,2.7,3.1,49,0.00,,,0.00,WUHU216TE923,2013-04-11 20:34:00,
2013-04-11 16:39:00,73.4,52.6,29.71,South,180,2.4,2.9,48,0.00,,,0.00,WUHU216TE923,2013-04-11 20:39:00,
2013-04-11 16:44:00,73.4,52.6,29.68,WSW,248,2.4,3.8,48,0.00,,,0.00,WUHU216TE923,2013-04-11 20:44:00,
2013-04-11 16:49:00,73.6,52.7,29.68,East,90,2.3,3.8,48,0.00,,,0.00,WUHU216TE923,2013-04-11 20:49:00,
2013-04-11 16:54:00,73.6,52.7,29.68,WSW,248,2.4,4.7,48,0.00,,,0.00,WUHU216TE923,2013-04-11 20:54:00,
2013-04-11 16:59:00,73.6,52.7,29.68,SW,225,2.8,6.8,48,0.00,,,0.00,WUHU216TE923,2013-04-11 20:59:00,
2013-04-11 17:04:00,73.2,52.9,29.67,NW,315,2.9,6.8,49,0.00,,,0.00,WUHU216TE923,2013-04-11 21:04:00,
2013-04-11 17:09:00,73.2,52.9,29.67,South,180,3.0,4.7,49,0.00,,,0.00,WUHU216TE923,2013-04-11 21:09:00,
2013-04-11 17:14:00,73.4,53.1,29.67,SW,225,2.6,4.7,49,0.00,,,0.00,WUHU216TE923,2013-04-11 21:14:00,
2013-04-11 17:19:00,73.2,52.9,29.67,South,180,2.5,3.8,49,0.00,,,0.00,WUHU216TE923,2013-04-11 21:19:00,
2013-04-11 17:25:00,73.2,52.9,29.66,SW,225,2.8,3.0,49,0.00,,,0.00,WUHU216TE923,2013-04-11 21:25:00,
2013-04-11 17:30:00,73.0,52.8,29.66,SSE,158,2.9,4.2,49,0.00,,,0.00,WUHU216TE923,2013-04-11 21:30:00,
2013-04-11 17:35:00,72.9,52.7,29.66,West,270,2.4,4.2,49,0.00,,,0.00,WUHU216TE923,2013-04-11 21:35:00,
2013-04-11 17:40:00,73.0,52.8,29.66,ESE,113,2.6,3.2,49,0.00,,,0.00,WUHU216TE923,2013-04-11 21:40:00,
2013-04-11 17:45:00,73.0,52.8,29.66,South,180,3.0,4.0,49,0.00,,,0.00,WUHU216TE923,2013-04-11 21:45:00,
2013-04-11 17:50:00,73.0,52.8,29.66,South,180,2.9,4.0,49,0.00,,,0.00,WUHU216TE923,2013-04-11 21:50:00,
2013-04-11 17:55:00,73.0,52.8,29.66,SSE,158,2.6,3.0,49,0.00,,,0.00,WUHU216TE923,2013-04-11 21:55:00,
2013-04-11 18:00:00,72.9,52.7,29.66,South,180,2.4,4.2,49,0.00,,,0.00,WUHU216TE923,2013-04-11 22:00:00,
2013-04-11 18:05:00,72.7,53.6,29.64,WSW,248,2.9,4.2,51,0.00,,,0.00,WUHU216TE923,2013-04-11 22:05:00,
2013-04-11 18:10:00,72.5,53.4,29.64,SSW,203,2.6,3.0,51,0.00,,,0.00,WUHU216TE923,2013-04-11 22:10:00,
2013-04-11 18:15:00,72.5,53.4,29.64,ESE,113,2.4,5.5,51,0.00,,,0.00,WUHU216TE923,2013-04-11 22:15:00,
2013-04-11 18:20:00,72.5,53.4,29.64,WSW,248,2.1,5.5,51,0.00,,,0.00,WUHU216TE923,2013-04-11 22:20:00,
2013-04-11 18:25:00,72.7,53.6,29.63,SE,135,1.8,2.9,51,0.00,,,0.00,WUHU216TE923,2013-04-11 22:25:00,
2013-04-11 18:30:00,72.7,53.6,29.63,SE,135,2.1,2.7,51,0.00,,,0.00,WUHU216TE923,2013-04-11 22:30:00,
2013-04-11 18:35:00,72.7,53.6,29.63,South,180,2.3,2.7,51,0.00,,,0.00,WUHU216TE923,2013-04-11 22:35:00,
2013-04-11 18:40:00,72.7,53.6,29.63,NE,45,2.0,2.4,51,0.00,,,0.00,WUHU216TE923,2013-04-11 22:40:00,
2013-04-11 18:44:00,72.7,53.6,29.63,SSE,158,2.3,3.3,51,0.00,,,0.00,WUHU216TE923,2013-04-11 22:44:00,
2013-04-11 18:45:00,72.7,53.6,29.63,SSE,158,2.3,3.3,51,0.00,,,0.00,WUHU216TE923,2013-04-11 22:45:00,
2013-04-11 18:50:00,72.7,53.6,29.63,SSE,158,2.3,3.3,51,0.00,,,0.00,WUHU216TE923,2013-04-11 22:50:00,
2013-04-11 18:58:00,67.6,54.7,29.63,South,180,3.4,5.6,63,0.00,,,0.00,WUHU216TE923,2013-04-11 22:58:00,
2013-04-11 19:03:00,67.6,54.7,29.63,South,180,3.4,5.6,63,0.00,,,0.00,WUHU216TE923,2013-04-11 23:03:00,
2013-04-11 19:08:00,67.1,54.7,29.63,ENE,68,1.9,2.5,64,0.14,,,0.14,WUHU216TE923,2013-04-11 23:08:00,
2013-04-11 19:13:00,67.1,54.7,29.63,ENE,68,1.9,2.5,64,0.14,,,0.14,WUHU216TE923,2013-04-11 23:13:00,
2013-04-11 19:18:00,67.5,55.1,29.63,ESE,113,0.6,1.4,64,0.14,,,0.14,WUHU216TE923,2013-04-11 23:18:00,
2013-04-11 19:23:00,67.5,55.1,29.63,ESE,113,0.6,1.4,64,0.14,,,0.14,WUHU216TE923,2013-04-11 23:23:00,
2013-04-11 19:28:00,67.5,55.5,29.61,SSW,203,0.2,1.3,65,0.14,,,0.14,WUHU216TE923,2013-04-11 23:28:00,
2013-04-11 19:33:00,67.8,56.6,29.61,SE,135,0.9,2.1,67,0.14,,,0.14,WUHU216TE923,2013-04-11 23:33:00,
2013-04-11 19:38:00,67.6,56.0,29.61,SW,225,1.5,5.7,66,0.14,,,0.14,WUHU216TE923,2013-04-11 23:38:00,
2013-04-11 19:43:00,67.8,56.2,29.61,SSW,203,1.9,5.7,66,0.14,,,0.14,WUHU216TE923,2013-04-11 23:43:00,
2013-04-11 19:48:00,68.0,56.8,29.61,SSE,158,1.9,2.6,67,0.00,,,0.14,WUHU216TE923,2013-04-11 23:48:00,
2013-04-11 19:53:00,68.0,56.8,29.61,SSE,158,1.9,2.6,67,0.00,,,0.14,WUHU216TE923,2013-04-11 23:53:00,
2013-04-11 19:58:00,68.4,57.2,29.61,SW,225,2.9,7.2,67,0.00,,,0.14,WUHU216TE923,2013-04-11 23:58:00,
2013-04-11 20:03:00,68.4,57.2,29.61,SW,225,2.9,7.2,67,0.00,,,0.14,WUHU216TE923,2013-04-12 00:03:00,
2013-04-11 20:08:00,68.2,57.0,29.59,WNW,293,2.3,2.6,67,0.03,,,0.17,WUHU216TE923,2013-04-12 00:08:00,
2013-04-11 20:13:00,68.2,57.0,29.59,WNW,293,2.3,2.6,67,0.03,,,0.17,WUHU216TE923,2013-04-12 00:13:00,
2013-04-11 20:18:00,68.0,57.6,29.59,SSW,203,2.0,2.4,69,0.03,,,0.17,WUHU216TE923,2013-04-12 00:18:00,
2013-04-11 20:23:00,68.0,57.6,29.59,SSW,203,2.0,2.4,69,0.03,,,0.17,WUHU216TE923,2013-04-12 00:23:00,
2013-04-11 20:28:00,67.8,57.8,29.60,SSW,203,2.5,4.4,70,0.03,,,0.17,WUHU216TE923,2013-04-12 00:28:00,
2013-04-11 20:33:00,67.8,57.8,29.60,SSW,203,2.5,4.4,70,0.03,,,0.17,WUHU216TE923,2013-04-12 00:33:00,
2013-04-11 20:38:00,68.0,57.6,29.60,South,180,2.2,3.4,69,0.06,,,0.20,WUHU216TE923,2013-04-12 00:38:00,
2013-04-11 20:43:00,68.0,57.6,29.60,South,180,2.2,3.4,69,0.06,,,0.20,WUHU216TE923,2013-04-12 00:43:00,
2013-04-11 20:48:00,67.8,57.4,29.59,SSE,158,2.2,2.2,69,0.06,,,0.20,WUHU216TE923,2013-04-12 00:48:00,
2013-04-11 20:53:00,67.6,57.2,29.59,SE,135,1.2,2.2,69,0.06,,,0.20,WUHU216TE923,2013-04-12 00:53:00,
2013-04-11 20:58:00,67.3,57.3,29.59,SE,135,0.7,1.2,70,0.03,,,0.20,WUHU216TE923,2013-04-12 00:58:00,
2013-04-11 21:03:00,67.1,57.5,29.59,SE,135,0.3,1.0,71,0.03,,,0.20,WUHU216TE923,2013-04-12 01:03:00,
2013-04-11 21:08:00,66.9,57.3,29.61,NE,45,0.2,1.0,71,0.03,,,0.20,WUHU216TE923,2013-04-12 01:08:00,
2013-04-11 21:13:00,66.7,57.5,29.61,NNE,23,0.9,1.9,72,0.03,,,0.20,WUHU216TE923,2013-04-12 01:13:00,
2013-04-11 21:18:00,66.6,58.2,29.61,NNE,23,1.6,2.8,74,0.06,,,0.23,WUHU216TE923,2013-04-12 01:18:00,
2013-04-11 21:23:00,66.4,57.6,29.61,SSE,158,1.3,2.8,73,0.06,,,0.23,WUHU216TE923,2013-04-12 01:23:00,
2013-04-11 21:28:00,66.2,57.1,29.59,SSE,158,0.5,1.3,72,0.03,,,0.23,WUHU216TE923,2013-04-12 01:28:00,
2013-04-11 21:33:00,65.7,57.3,29.59,WSW,248,1.5,10.5,74,0.03,,,0.23,WUHU216TE923,2013-04-12 01:33:00,
2013-04-11 21:38:00,63.1,54.8,29.59,South,180,2.8,10.5,74,0.11,,,0.31,WUHU216TE923,2013-04-12 01:38:00,
2013-04-11 21:43:00,63.1,54.8,29.59,South,180,2.8,3.3,74,0.11,,,0.31,WUHU216TE923,2013-04-12 01:43:00,
2013-04-11 21:48:00,63.0,54.7,29.64,West,270,1.6,1.6,74,0.19,,,0.39,WUHU216TE923,2013-04-12 01:48:00,
2013-04-11 21:53:00,62.6,54.3,29.64,West,270,1.3,1.8,74,0.22,,,0.42,WUHU216TE923,2013-04-12 01:53:00,
2013-04-11 21:58:00,62.2,53.9,29.64,NW,315,1.3,2.2,74,0.25,,,0.45,WUHU216TE923,2013-04-12 01:58:00,
2013-04-11 22:03:00,62.1,54.2,29.64,NNE,23,1.8,3.0,75,0.28,,,0.48,WUHU216TE923,2013-04-12 02:03:00,
2013-04-11 22:08:00,62.1,54.5,29.65,NW,315,1.9,3.0,76,0.30,,,0.53,WUHU216TE923,2013-04-12 02:08:00,
2013-04-11 22:13:00,62.1,54.5,29.65,West,270,1.2,1.9,76,0.36,,,0.59,WUHU216TE923,2013-04-12 02:13:00,
2013-04-11 22:18:00,62.1,54.2,29.65,North,0,0.7,1.2,75,0.38,,,0.61,WUHU216TE923,2013-04-12 02:18:00,
2013-04-11 22:23:00,62.1,54.5,29.65,NW,315,0.2,1.1,76,0.41,,,0.64,WUHU216TE923,2013-04-12 02:23:00,
2013-04-11 22:28:00,62.1,54.5,29.64,NW,315,0.1,0.2,76,0.44,,,0.67,WUHU216TE923,2013-04-12 02:28:00,
2013-04-11 22:33:00,62.1,54.2,29.64,NW,315,0.0,0.1,75,0.47,,,0.70,WUHU216TE923,2013-04-12 02:33:00,
2013-04-11 22:38:00,62.1,54.2,29.64,NW,315,0.0,0.0,75,0.31,,,0.70,WUHU216TE923,2013-04-12 02:38:00,
2013-04-11 22:43:00,62.1,54.5,29.64,South,180,0.0,1.1,76,0.31,,,0.73,WUHU216TE923,2013-04-12 02:43:00,
2013-04-11 22:48:00,61.9,54.4,29.66,West,270,0.3,1.1,76,0.28,,,0.73,WUHU216TE923,2013-04-12 02:48:00,
2013-04-11 22:53:00,61.9,54.7,29.66,SSW,203,0.7,1.7,77,0.28,,,0.76,WUHU216TE923,2013-04-12 02:53:00,
2013-04-11 22:58:00,61.9,55.0,29.66,West,270,0.9,1.7,78,0.25,,,0.78,WUHU216TE923,2013-04-12 02:58:00,
2013-04-11 23:03:00,61.9,55.0,29.66,WSW,248,0.9,1.4,78,0.25,,,0.78,WUHU216TE923,2013-04-12 03:03:00,
2013-04-11 23:08:00,61.9,55.0,29.66,NW,315,0.8,1.8,78,0.22,,,0.81,WUHU216TE923,2013-04-12 03:08:00,
2013-04-11 23:13:00,61.7,54.9,29.66,WSW,248,0.8,1.8,78,0.23,,,0.84,WUHU216TE923,2013-04-12 03:13:00,
2013-04-11 23:18:00,61.7,55.2,29.66,SSW,203,1.4,1.6,79,0.20,,,0.84,WUHU216TE923,2013-04-12 03:18:00,
2013-04-11 23:23:00,61.7,55.2,29.66,NW,315,0.9,1.6,79,0.17,,,0.84,WUHU216TE923,2013-04-12 03:23:00,
2013-04-11 23:28:00,61.7,55.2,29.67,ENE,68,0.4,0.9,79,0.17,,,0.87,WUHU216TE923,2013-04-12 03:28:00,
2013-04-11 23:33:00,61.7,55.5,29.67,SW,225,0.8,3.7,80,0.19,,,0.89,WUHU216TE923,2013-04-12 03:33:00,
2013-04-11 23:38:00,61.7,55.5,29.67,WNW,293,1.4,3.7,80,0.19,,,0.92,WUHU216TE923,2013-04-12 03:38:00,
2013-04-11 23:43:00,61.7,55.5,29.67,NW,315,2.0,3.1,80,0.22,,,0.95,WUHU216TE923,2013-04-12 03:43:00,
2013-04-11 23:48:00,61.5,56.0,29.67,NW,315,2.4,2.4,82,0.20,,,0.98,WUHU216TE923,2013-04-12 03:48:00,
2013-04-11 23:53:00,61.5,56.0,29.67,NW,315,2.4,2.4,82,0.20,,,0.98,WUHU216TE923,2013-04-12 03:53:00,
2013-04-11 23:58:00,61.5,56.0,29.67,WSW,248,1.9,2.7,82,0.28,,,1.09,WUHU216TE923,2013-04-12 03:58:00,